createdAt,value
2022-08-17T00:00:12.038Z,99723.83
2022-08-17T00:03:03.072Z,99721.59
2022-08-17T00:05:33.584Z,99720.22
2022-08-17T00:08:02.001Z,99719.82
2022-08-17T00:10:30.352Z,99723.20
2022-08-17T00:13:04.468Z,99723.09
2022-08-17T00:15:32.319Z,99719.08
2022-08-17T00:18:00.009Z,99719.84
2022-08-17T00:20:30.486Z,99721.41
2022-08-17T00:23:08.649Z,99723.27
2022-08-17T00:25:36.768Z,99726.58
2022-08-17T00:28:06.430Z,99723.16
2022-08-17T00:30:53.085Z,99719.67
2022-08-17T00:33:24.004Z,99716.89
2022-08-17T00:35:53.182Z,99715.89
2022-08-17T00:38:21.863Z,99715.67
2022-08-17T00:40:55.629Z,99716.64
2022-08-17T00:43:31.087Z,99715.90
2022-08-17T00:46:00.690Z,99712.44
2022-08-17T00:48:30.795Z,99714.58
2022-08-17T00:51:04.056Z,99716.23
2022-08-17T00:53:35.501Z,99712.30
2022-08-17T00:56:07.858Z,99712.15
2022-08-17T00:58:36.941Z,99709.14
2022-08-17T01:01:06.332Z,99706.05
2022-08-17T01:03:37.049Z,99707.36
2022-08-17T01:06:08.340Z,99708.31
2022-08-17T01:08:38.104Z,99705.25
2022-08-17T01:11:07.648Z,99704.83
2022-08-17T01:13:41.105Z,99703.47
2022-08-17T01:16:16.640Z,99708.63
2022-08-17T01:18:46.627Z,99711.71
2022-08-17T01:21:22.293Z,99706.34
2022-08-17T01:23:50.192Z,99708.09
2022-08-17T01:26:18.903Z,99700.34
2022-08-17T01:28:54.974Z,99701.16
2022-08-17T01:31:27.753Z,99701.98
2022-08-17T01:33:55.533Z,99702.88
2022-08-17T01:36:23.338Z,99703.64
2022-08-17T01:38:51.143Z,99704.98
2022-08-17T01:41:20.561Z,99706.09
2022-08-17T01:43:54.934Z,99705.98
2022-08-17T01:46:26.608Z,99705.70
2022-08-17T01:48:55.610Z,99706.48
2022-08-17T01:51:24.723Z,99699.31
2022-08-17T01:53:56.810Z,99697.33
2022-08-17T01:56:26.226Z,99699.08
2022-08-17T01:58:54.302Z,99695.95
2022-08-17T02:01:25.816Z,99693.99
2022-08-17T02:03:59.376Z,99699.50
2022-08-17T02:06:30.615Z,99697.16
2022-08-17T02:09:02.977Z,99697.34
2022-08-17T02:11:34.253Z,99697.04
2022-08-17T02:14:04.493Z,99693.98
2022-08-17T02:16:37.549Z,99687.10
2022-08-17T02:19:09.107Z,99687.33
2022-08-17T02:21:38.364Z,99691.33
2022-08-17T02:24:10.212Z,99696.54
2022-08-17T02:26:38.201Z,99692.70
2022-08-17T02:29:06.649Z,99694.61
2022-08-17T02:31:34.931Z,99695.10
2022-08-17T02:34:05.315Z,99695.27
2022-08-17T02:36:35.015Z,99702.17
2022-08-17T02:39:06.139Z,99706.19
2022-08-17T02:41:34.034Z,99714.19
2022-08-17T02:44:01.957Z,99716.47
2022-08-17T02:46:31.369Z,99721.53
2022-08-17T02:48:59.281Z,99719.87
2022-08-17T02:51:27.411Z,99721.77
2022-08-17T02:54:39.447Z,99722.21
2022-08-17T02:56:43.653Z,99721.08
2022-08-17T02:59:11.627Z,99715.73
2022-08-17T03:01:39.755Z,99717.14
2022-08-17T03:04:07.681Z,99717.20
2022-08-17T03:06:36.720Z,99719.80
2022-08-17T03:09:05.023Z,99720.20
2022-08-17T03:11:32.811Z,99721.31
2022-08-17T03:14:01.641Z,99720.27
2022-08-17T03:16:29.417Z,99718.21
2022-08-17T03:18:57.266Z,99715.90
2022-08-17T03:21:25.037Z,99718.11
2022-08-17T03:23:54.527Z,99718.50
2022-08-17T03:26:22.663Z,99718.80
2022-08-17T03:28:50.403Z,99711.75
2022-08-17T03:31:18.222Z,99709.13
2022-08-17T03:33:46.014Z,99710.16
2022-08-17T03:36:14.229Z,99709.41
2022-08-17T03:38:41.953Z,99702.89
2022-08-17T03:41:10.824Z,99702.95
2022-08-17T03:43:38.642Z,99702.97
2022-08-17T03:46:27.900Z,99699.67
2022-08-17T03:49:18.863Z,99699.04
2022-08-17T03:52:05.021Z,99704.52
2022-08-17T03:54:51.224Z,99704.34
2022-08-17T03:57:19.349Z,99704.05
2022-08-17T03:59:47.901Z,99699.91
2022-08-17T04:02:21.108Z,99694.02
2022-08-17T04:04:50.241Z,99695.28
2022-08-17T04:07:19.026Z,99692.30
2022-08-17T04:09:46.767Z,99695.82
2022-08-17T04:12:16.760Z,99692.08
2022-08-17T04:14:53.562Z,99692.33
2022-08-17T04:17:25.371Z,99692.29
2022-08-17T04:19:54.465Z,99693.22
2022-08-17T04:22:30.894Z,99694.58
2022-08-17T04:25:04.747Z,99703.13
2022-08-17T04:27:31.602Z,99719.95
2022-08-17T04:30:00.090Z,99741.36
2022-08-17T04:33:03.409Z,99769.90
2022-08-17T04:35:22.312Z,99790.13
2022-08-17T04:37:51.031Z,99791.15
2022-08-17T04:40:39.475Z,99792.35
2022-08-17T04:43:12.832Z,99805.29
2022-08-17T04:45:55.089Z,99799.70
2022-08-17T04:48:29.967Z,99794.08
2022-08-17T04:51:08.858Z,99799.83
2022-08-17T04:53:36.792Z,99799.91
2022-08-17T04:56:05.231Z,99802.94
2022-08-17T04:58:33.255Z,99803.64
2022-08-17T05:01:02.302Z,99812.36
2022-08-17T05:03:31.280Z,99819.45
2022-08-17T05:05:59.102Z,99821.29
2022-08-17T05:08:27.259Z,99816.89
2022-08-17T05:10:55.413Z,99811.03
2022-08-17T05:13:26.627Z,99818.08
2022-08-17T05:15:54.521Z,99818.88
2022-08-17T05:18:22.671Z,99822.86
2022-08-17T05:20:52.937Z,99825.59
2022-08-17T05:23:23.306Z,99813.23
2022-08-17T05:25:54.317Z,99809.21
2022-08-17T05:28:27.408Z,99810.73
2022-08-17T05:30:57.820Z,99813.10
2022-08-17T05:33:28.571Z,99806.19
2022-08-17T05:35:58.977Z,99812.41
2022-08-17T05:38:28.622Z,99816.34
2022-08-17T05:40:57.693Z,99810.55
2022-08-17T05:43:27.842Z,99809.67
2022-08-17T05:46:02.505Z,99814.30
2022-08-17T05:48:35.832Z,99820.40
2022-08-17T05:51:31.787Z,99824.27
2022-08-17T05:54:23.117Z,99827.33
2022-08-17T05:56:58.776Z,99828.76
2022-08-17T05:59:34.475Z,99831.93
2022-08-17T06:02:11.150Z,99834.71
2022-08-17T06:04:55.008Z,99833.92
2022-08-17T06:07:31.503Z,99826.11
2022-08-17T06:10:08.659Z,99825.86
2022-08-17T06:12:49.791Z,99831.34
2022-08-17T06:15:29.994Z,99832.08
2022-08-17T06:18:01.602Z,99828.53
2022-08-17T06:20:37.911Z,99806.66
2022-08-17T06:23:13.971Z,99795.23
2022-08-17T06:25:47.574Z,99791.06
2022-08-17T06:28:24.947Z,99794.79
2022-08-17T06:31:00.607Z,99811.36
2022-08-17T06:33:33.691Z,99801.27
2022-08-17T06:36:10.791Z,99795.17
2022-08-17T06:38:50.727Z,99791.59
2022-08-17T06:41:28.513Z,99787.11
2022-08-17T06:44:13.192Z,99784.70
2022-08-17T06:47:08.237Z,99783.70
2022-08-17T06:49:43.345Z,99784.52
2022-08-17T06:52:45.946Z,99786.40
2022-08-17T06:55:18.742Z,99796.18
2022-08-17T06:57:51.899Z,99794.79
2022-08-17T07:00:23.225Z,99804.45
2022-08-17T07:03:02.510Z,99806.64
2022-08-17T07:05:38.713Z,99814.52
2022-08-17T07:08:17.838Z,99819.35
2022-08-17T07:10:50.747Z,99826.08
2022-08-17T07:13:28.773Z,99827.41
2022-08-17T07:16:12.521Z,99827.05
2022-08-17T07:18:40.762Z,99818.60
2022-08-17T07:21:26.170Z,99808.29
2022-08-17T07:24:29.907Z,99811.89
2022-08-17T07:27:12.362Z,99822.91
2022-08-17T07:29:45.602Z,99830.02
2022-08-17T07:32:18.709Z,99824.10
2022-08-17T07:35:15.290Z,99822.19
2022-08-17T07:37:52.479Z,99825.50
2022-08-17T07:40:28.299Z,99831.38
2022-08-17T07:43:05.833Z,99833.92
2022-08-17T07:45:53.424Z,99839.58
2022-08-17T07:48:24.739Z,99848.27
2022-08-17T07:50:53.292Z,99852.27
2022-08-17T07:53:24.267Z,99855.91
2022-08-17T07:55:53.400Z,99851.42
2022-08-17T07:58:23.910Z,99843.41
2022-08-17T08:01:08.003Z,99841.73
2022-08-17T08:03:42.217Z,99835.77
2022-08-17T08:06:21.591Z,99837.56
2022-08-17T08:08:54.452Z,99836.63
2022-08-17T08:11:31.954Z,99841.02
2022-08-17T08:14:28.696Z,99845.56
2022-08-17T08:16:59.598Z,99847.51
2022-08-17T08:19:28.738Z,99845.11
2022-08-17T08:22:04.883Z,99836.08
2022-08-17T08:24:56.992Z,99848.13
2022-08-17T08:27:37.803Z,99863.85
2022-08-17T08:30:10.099Z,99875.33
2022-08-17T08:32:53.361Z,99878.13
2022-08-17T08:35:30.201Z,99873.03
2022-08-17T08:38:07.063Z,99870.02
2022-08-17T08:40:49.340Z,99875.52
2022-08-17T08:43:26.838Z,99873.89
2022-08-17T08:46:06.346Z,99867.50
2022-08-17T08:49:06.515Z,99862.95
2022-08-17T08:51:51.761Z,99859.77
2022-08-17T08:54:34.007Z,99858.95
2022-08-17T08:57:34.015Z,99861.16
2022-08-17T09:00:12.159Z,99859.56
2022-08-17T09:03:07.682Z,99861.86
2022-08-17T09:05:52.732Z,99854.98
2022-08-17T09:08:35.223Z,99853.14
2022-08-17T09:11:10.045Z,99852.54
2022-08-17T09:13:46.107Z,99857.86
2022-08-17T09:16:29.173Z,99856.27
2022-08-17T09:19:04.627Z,99860.33
2022-08-17T09:21:47.757Z,99856.98
2022-08-17T09:24:24.825Z,99844.94
2022-08-17T09:26:58.405Z,99838.45
2022-08-17T09:29:29.268Z,99829.77
2022-08-17T09:32:02.829Z,99820.97
2022-08-17T09:34:34.921Z,99816.98
2022-08-17T09:37:16.713Z,99831.39
2022-08-17T09:39:53.097Z,99838.41
2022-08-17T09:42:29.577Z,99835.53
2022-08-17T09:45:18.929Z,99834.42
2022-08-17T09:47:53.530Z,99854.39
2022-08-17T09:51:03.609Z,99857.88
2022-08-17T09:53:14.588Z,99868.49
2022-08-17T09:56:41.043Z,99879.36
2022-08-17T09:59:38.169Z,99892.63
2022-08-17T10:02:36.541Z,99887.50
2022-08-17T10:05:12.879Z,99894.96
2022-08-17T10:07:48.027Z,99892.14
2022-08-17T10:10:24.228Z,99888.84
2022-08-17T10:12:56.664Z,99890.45
2022-08-17T10:15:38.607Z,99889.20
2022-08-17T10:18:25.109Z,99895.38
2022-08-17T10:21:24.778Z,99915.52
2022-08-17T10:24:26.524Z,99904.55
2022-08-17T10:26:57.825Z,99918.77
2022-08-17T10:29:40.814Z,99921.58
2022-08-17T10:32:27.608Z,99922.30
2022-08-17T10:35:18.169Z,99907.67
2022-08-17T10:37:59.893Z,99897.90
2022-08-17T10:40:35.297Z,99912.91
2022-08-17T10:43:20.614Z,99944.89
2022-08-17T10:46:21.537Z,99960.79
2022-08-17T10:48:43.227Z,99967.86
2022-08-17T10:51:35.500Z,99965.95
2022-08-17T10:54:03.995Z,99964.02
2022-08-17T10:56:44.730Z,99969.06
2022-08-17T10:59:50.429Z,99969.30
2022-08-17T11:02:26.767Z,99978.06
2022-08-17T11:05:23.340Z,99978.73
2022-08-17T11:08:13.591Z,99977.52
2022-08-17T11:10:57.265Z,99973.70
2022-08-17T11:13:40.638Z,99972.13
2022-08-17T11:16:30.276Z,99970.49
2022-08-17T11:19:27.658Z,99980.74
2022-08-17T11:22:48.223Z,99988.21
2022-08-17T11:25:18.801Z,99991.19
2022-08-17T11:27:52.850Z,99989.05
2022-08-17T11:30:46.289Z,99985.98
2022-08-17T11:33:53.301Z,99974.34
2022-08-17T11:36:35.196Z,99976.74
2022-08-17T11:39:16.818Z,99977.41
2022-08-17T11:41:54.786Z,99975.14
2022-08-17T11:44:36.952Z,99972.60
2022-08-17T11:47:32.915Z,99968.70
2022-08-17T11:50:41.801Z,99968.55
2022-08-17T11:53:49.441Z,99976.98
2022-08-17T11:56:33.867Z,99984.27
2022-08-17T11:59:02.282Z,99983.02
2022-08-17T12:01:51.936Z,99975.70
2022-08-17T12:04:30.983Z,99977.58
2022-08-17T12:07:06.227Z,99979.25
2022-08-17T12:09:38.465Z,99966.81
2022-08-17T12:12:14.425Z,99965.77
2022-08-17T12:15:09.644Z,99964.48
2022-08-17T12:17:41.107Z,99968.02
2022-08-17T12:20:14.872Z,99973.34
2022-08-17T12:22:55.712Z,99978.89
2022-08-17T12:25:26.547Z,99974.69
2022-08-17T12:28:05.097Z,99975.12
2022-08-17T12:30:35.066Z,99962.10
2022-08-17T12:33:10.960Z,99954.47
2022-08-17T12:35:38.919Z,99949.14
2022-08-17T12:38:30.360Z,99937.92
2022-08-17T12:40:58.158Z,99935.50
2022-08-17T12:43:30.516Z,99937.49
2022-08-17T12:46:13.497Z,99940.25
2022-08-17T12:48:59.234Z,99935.13
2022-08-17T12:51:29.217Z,99928.54
2022-08-17T12:53:57.427Z,99929.64
2022-08-17T12:56:26.360Z,99925.46
2022-08-17T12:58:54.969Z,99917.68
2022-08-17T13:01:24.331Z,99918.30
2022-08-17T13:03:56.619Z,99906.02
2022-08-17T13:06:31.624Z,99889.81
2022-08-17T13:09:10.162Z,99876.02
2022-08-17T13:11:47.837Z,99884.09
2022-08-17T13:14:17.848Z,99883.03
2022-08-17T13:16:52.257Z,99877.70
2022-08-17T13:19:39.882Z,99875.43
2022-08-17T13:22:11.933Z,99858.63
2022-08-17T13:24:53.687Z,99854.10
2022-08-17T13:27:24.410Z,99855.16
2022-08-17T13:29:53.250Z,99856.79
2022-08-17T13:32:31.171Z,99855.52
2022-08-17T13:35:29.512Z,99848.02
2022-08-17T13:38:03.721Z,99843.23
2022-08-17T13:40:39.146Z,99842.98
2022-08-17T13:47:28.268Z,99854.99
2022-08-17T13:49:56.111Z,99853.32
2022-08-17T13:52:38.074Z,99850.09
2022-08-17T13:55:17.118Z,99849.88
2022-08-17T13:57:46.385Z,99850.31
2022-08-17T14:00:30.017Z,99843.92
2022-08-17T14:02:58.401Z,99849.56
2022-08-17T14:05:27.075Z,99853.29
2022-08-17T14:07:57.743Z,99844.33
2022-08-17T14:10:26.062Z,99837.17
2022-08-17T14:12:54.077Z,99828.40
2022-08-17T14:15:24.379Z,99825.09
2022-08-17T14:18:12.014Z,99817.41
2022-08-17T14:20:39.996Z,99813.29
2022-08-17T14:23:07.963Z,99802.91
2022-08-17T14:25:35.832Z,99800.02
2022-08-17T14:28:06.966Z,99794.98
2022-08-17T14:30:35.007Z,99795.48
2022-08-17T14:33:05.320Z,99795.17
2022-08-17T14:35:34.648Z,99788.49
2022-08-17T14:38:02.469Z,99786.20
2022-08-17T14:40:30.806Z,99784.20
2022-08-17T14:42:58.827Z,99783.96
2022-08-17T14:45:30.073Z,99779.06
2022-08-17T14:48:03.621Z,99777.86
2022-08-17T14:50:31.917Z,99766.61
2022-08-17T14:53:01.412Z,99768.42
2022-08-17T14:55:30.543Z,99773.93
2022-08-17T14:57:58.753Z,99775.02
2022-08-17T15:00:27.886Z,99773.78
2022-08-17T15:02:59.298Z,99773.93
2022-08-17T15:05:30.753Z,99768.89
2022-08-17T15:07:58.743Z,99773.43
2022-08-17T15:10:28.033Z,99774.66
2022-08-17T15:12:56.438Z,99772.61
2022-08-17T15:15:24.931Z,99771.09
2022-08-17T15:17:52.868Z,99768.30
2022-08-17T15:20:24.307Z,99769.98
2022-08-17T15:22:54.602Z,99769.88
2022-08-17T15:25:23.156Z,99773.61
2022-08-17T15:27:51.990Z,99770.65
2022-08-17T15:30:20.995Z,99765.94
2022-08-17T15:32:54.407Z,99761.05
2022-08-17T15:35:27.749Z,99761.38
2022-08-17T15:37:57.561Z,99757.83
2022-08-17T15:40:25.341Z,99766.52
2022-08-17T15:42:53.566Z,99764.35
2022-08-17T15:45:25.978Z,99764.19
2022-08-17T15:47:54.208Z,99766.67
2022-08-17T15:50:21.929Z,99762.94
2022-08-17T15:52:55.603Z,99754.22
2022-08-17T15:55:24.479Z,99752.91
2022-08-17T15:57:52.794Z,99750.36
2022-08-17T16:00:23.299Z,99750.20
2022-08-17T16:03:44.715Z,99751.77
2022-08-17T16:05:40.803Z,99758.84
2022-08-17T16:08:10.254Z,99759.94
2022-08-17T16:10:38.290Z,99765.94
2022-08-17T16:13:05.970Z,99761.23
2022-08-17T16:15:51.148Z,99765.70
2022-08-17T16:18:30.192Z,99770.20
2022-08-17T16:21:18.339Z,99766.23
2022-08-17T16:23:46.293Z,99764.65
2022-08-17T16:26:14.165Z,99767.52
2022-08-17T16:28:42.019Z,99770.99
2022-08-17T16:31:09.859Z,99769.45
2022-08-17T16:33:39.122Z,99763.39
2022-08-17T16:36:08.312Z,99768.61
2022-08-17T16:38:37.525Z,99769.90
2022-08-17T16:41:06.603Z,99765.86
2022-08-17T16:43:35.233Z,99758.61
2022-08-17T16:46:03.292Z,99755.23
2022-08-17T16:48:31.027Z,99757.07
2022-08-17T16:51:04.137Z,99759.20
2022-08-17T16:53:32.580Z,99760.45
2022-08-17T16:56:01.563Z,99758.69
2022-08-17T16:58:29.368Z,99754.18
2022-08-17T17:00:58.692Z,99753.34
2022-08-17T17:03:28.427Z,99747.11
2022-08-17T17:06:06.770Z,99745.88
2022-08-17T17:08:42.042Z,99750.42
2022-08-17T17:11:17.274Z,99753.30
2022-08-17T17:13:49.837Z,99750.09
2022-08-17T17:16:23.304Z,99748.43
2022-08-17T17:19:04.057Z,99737.27
2022-08-17T17:21:39.667Z,99732.84
2022-08-17T17:24:14.070Z,99728.84
2022-08-17T17:26:54.949Z,99732.94
2022-08-17T17:29:48.459Z,99732.06
2022-08-17T17:32:21.418Z,99729.92
2022-08-17T17:34:54.669Z,99733.41
2022-08-17T17:37:31.999Z,99732.61
2022-08-17T17:40:06.089Z,99731.55
2022-08-17T17:42:34.982Z,99729.19
2022-08-17T17:45:11.872Z,99731.70
2022-08-17T17:47:39.908Z,99725.38
2022-08-17T17:50:08.528Z,99720.58
2022-08-17T17:52:47.200Z,99723.74
2022-08-17T17:55:29.255Z,99726.11
2022-08-17T17:58:06.883Z,99723.02
2022-08-17T18:00:39.951Z,99720.14
2022-08-17T18:03:22.123Z,99719.48
2022-08-17T18:06:07.903Z,99717.99
2022-08-17T18:08:49.976Z,99710.34
2022-08-17T18:11:36.676Z,99707.16
2022-08-17T18:14:16.700Z,99704.64
2022-08-17T18:16:45.818Z,99708.67
2022-08-17T18:19:15.531Z,99712.08
2022-08-17T18:21:48.461Z,99710.48
2022-08-17T18:24:29.974Z,99715.50
2022-08-17T18:27:00.011Z,99718.22
2022-08-17T18:29:37.640Z,99716.95
2022-08-17T18:32:28.146Z,99729.23
2022-08-17T18:34:59.056Z,99734.38
2022-08-17T18:37:44.812Z,99735.73
2022-08-17T18:40:34.137Z,99732.54
2022-08-17T18:43:25.130Z,99732.07
2022-08-17T18:45:56.035Z,99734.81
2022-08-17T18:48:28.866Z,99738.61
2022-08-17T18:51:01.429Z,99744.23
2022-08-17T18:53:37.796Z,99749.46
2022-08-17T18:56:24.557Z,99757.85
2022-08-17T18:59:02.297Z,99765.56
2022-08-17T19:01:41.982Z,99763.75
2022-08-17T19:04:34.635Z,99767.13
2022-08-17T19:07:12.359Z,99770.64
2022-08-17T19:09:46.785Z,99771.31
2022-08-17T19:12:27.430Z,99773.05
2022-08-17T19:14:57.118Z,99779.35
2022-08-17T19:17:32.687Z,99783.40
2022-08-17T19:20:06.597Z,99783.39
2022-08-17T19:22:56.656Z,99787.77
2022-08-17T19:25:31.335Z,99789.33
2022-08-17T19:28:06.198Z,99794.98
2022-08-17T19:30:54.374Z,99799.75
2022-08-17T19:33:22.408Z,99796.05
2022-08-17T19:35:58.607Z,99795.35
2022-08-17T19:38:39.409Z,99802.08
2022-08-17T19:41:15.682Z,99800.48
2022-08-17T19:44:07.511Z,99797.71
2022-08-17T19:46:48.549Z,99794.70
2022-08-17T19:49:33.509Z,99790.48
2022-08-17T19:52:26.251Z,99788.83
2022-08-17T19:55:00.238Z,99787.14
2022-08-17T19:57:37.874Z,99785.77
2022-08-17T20:00:11.065Z,99792.27
2022-08-17T20:02:46.489Z,99794.25
2022-08-17T20:05:19.583Z,99794.94
2022-08-17T20:07:54.015Z,99795.59
2022-08-17T20:10:30.163Z,99796.31
2022-08-17T20:13:06.332Z,99797.51
2022-08-17T20:15:38.828Z,99796.17
2022-08-17T20:18:17.671Z,99799.55
2022-08-17T20:20:55.811Z,99800.06
2022-08-17T20:23:51.132Z,99803.22
2022-08-17T20:26:27.819Z,99803.98
2022-08-17T20:29:19.829Z,99802.69
2022-08-17T20:32:17.157Z,99802.02
2022-08-17T20:34:47.597Z,99799.11
2022-08-17T20:37:32.561Z,99796.39
2022-08-17T20:40:21.514Z,99795.52
2022-08-17T20:42:49.295Z,99797.56
2022-08-17T20:46:04.680Z,99795.77
2022-08-17T20:48:40.933Z,99797.31
2022-08-17T20:51:21.019Z,99798.78
2022-08-17T20:54:06.288Z,99803.72
2022-08-17T20:56:59.805Z,99807.08
2022-08-17T20:59:56.478Z,99808.80
2022-08-17T21:02:27.345Z,99810.41
2022-08-17T21:05:27.233Z,99821.20
2022-08-17T21:08:12.152Z,99820.55
2022-08-17T21:10:43.103Z,99816.13
2022-08-17T21:13:45.787Z,99815.31
2022-08-17T21:16:31.219Z,99818.42
2022-08-17T21:19:09.722Z,99814.34
2022-08-17T21:21:49.982Z,99811.80
2022-08-17T21:24:30.536Z,99811.48
2022-08-17T21:27:07.654Z,99817.85
2022-08-17T21:29:52.779Z,99834.95
2022-08-17T21:32:29.221Z,99844.20
2022-08-17T21:35:24.426Z,99843.46
2022-08-17T21:37:56.263Z,99839.77
2022-08-17T21:40:26.520Z,99838.34
2022-08-17T21:42:57.410Z,99846.52
2022-08-17T21:45:30.295Z,99855.13
2022-08-17T21:48:13.235Z,99853.77
2022-08-17T21:50:43.850Z,99846.84
2022-08-17T21:53:22.593Z,99852.61
2022-08-17T21:55:51.700Z,99850.70
2022-08-17T21:58:30.317Z,99852.33
2022-08-17T22:01:21.068Z,99855.98
2022-08-17T22:03:57.555Z,99861.17
2022-08-17T22:06:29.008Z,99852.70
2022-08-17T22:09:04.432Z,99845.88
2022-08-17T22:11:46.937Z,99846.03
2022-08-17T22:14:17.710Z,99845.84
2022-08-17T22:16:45.502Z,99844.45
2022-08-17T22:19:13.679Z,99847.23
2022-08-17T22:21:41.419Z,99851.61
2022-08-17T22:24:21.020Z,99851.23
2022-08-17T22:27:02.195Z,99855.40
2022-08-17T22:29:57.030Z,99861.21
2022-08-17T22:32:34.842Z,99862.77
2022-08-17T22:35:34.061Z,99868.86
2022-08-17T22:38:30.751Z,99873.42
2022-08-17T22:41:35.513Z,99881.86
2022-08-17T22:44:23.976Z,99887.95
2022-08-17T22:46:59.287Z,99898.08
2022-08-17T22:49:30.398Z,99900.56
2022-08-17T22:52:05.248Z,99901.80
2022-08-17T22:54:51.526Z,99903.77
2022-08-17T22:57:40.694Z,99914.47
2022-08-17T23:00:30.097Z,99918.42
2022-08-17T23:03:08.788Z,99922.15
2022-08-17T23:05:37.258Z,99924.48
2022-08-17T23:08:05.381Z,99931.09
2022-08-17T23:10:35.279Z,99934.27
2022-08-17T23:13:03.997Z,99937.09
2022-08-17T23:15:33.165Z,99937.23
2022-08-17T23:18:04.406Z,99941.05
2022-08-17T23:20:33.614Z,99959.42
2022-08-17T23:23:03.113Z,99958.25
2022-08-17T23:25:33.732Z,99960.04
2022-08-17T23:28:03.531Z,99962.06
2022-08-17T23:30:33.169Z,99973.05
2022-08-17T23:33:04.397Z,99976.38
2022-08-17T23:35:38.926Z,99985.05
2022-08-17T23:38:09.140Z,99989.98
2022-08-17T23:40:37.475Z,99997.74
2022-08-17T23:43:05.904Z,99992.60
2022-08-17T23:45:43.231Z,99995.09
2022-08-17T23:48:11.051Z,99996.45
2022-08-17T23:50:38.995Z,99997.19
2022-08-17T23:53:08.519Z,99997.09
2022-08-17T23:55:36.329Z,99996.73
2022-08-17T23:58:05.024Z,99993.93
